Time,TemperatureF,DewpointF,PressureIn,WindDirection,WindDirectionDegrees,WindSpeedMPH,WindSpeedGustMPH,Humidity,HourlyPrecipIn,Conditions,Clouds,dailyrainin,SoftwareType,DateUTC
2013-06-24 00:01:00,77.0,75.8,30.16,SW,233,0.0,2.0,96,0.00,,,0.07,VWS V14.00,2013-06-24 04:01:00,
2013-06-24 00:02:00,77.0,75.8,30.16,SW,234,0.0,0.0,96,0.00,,,0.00,VWS V14.00,2013-06-24 04:02:00,
2013-06-24 00:03:00,77.0,75.8,30.16,SW,234,0.0,0.0,96,0.00,,,0.00,VWS V14.00,2013-06-24 04:03:00,
2013-06-24 00:08:00,77.0,76.1,30.16,SW,233,0.0,0.0,97,0.00,,,0.00,VWS V14.00,2013-06-24 04:08:00,
2013-06-24 00:13:00,76.9,75.7,30.16,SW,234,0.0,1.0,96,0.00,,,0.00,VWS V14.00,2013-06-24 04:13:00,
2013-06-24 00:19:00,76.9,76.0,30.16,SW,233,0.0,1.0,97,0.00,,,0.00,VWS V14.00,2013-06-24 04:19:00,
2013-06-24 00:24:00,76.9,76.0,30.15,SW,233,0.0,1.0,97,0.00,,,0.00,VWS V14.00,2013-06-24 04:24:00,
2013-06-24 00:29:00,76.9,76.0,30.16,West,267,0.0,1.0,97,0.00,,,0.00,VWS V14.00,2013-06-24 04:29:00,
2013-06-24 00:34:00,76.9,76.0,30.15,West,267,0.0,0.0,97,0.00,,,0.00,VWS V14.00,2013-06-24 04:34:00,
2013-06-24 00:39:00,76.9,76.0,30.15,West,267,0.0,1.0,97,0.00,,,0.00,VWS V14.00,2013-06-24 04:39:00,
2013-06-24 00:44:00,76.9,76.0,30.15,West,267,0.0,1.0,97,0.00,,,0.00,VWS V14.00,2013-06-24 04:44:00,
2013-06-24 00:49:00,76.9,76.0,30.15,SSW,213,0.0,2.0,97,0.00,,,0.00,VWS V14.00,2013-06-24 04:49:00,
2013-06-24 00:54:00,76.9,76.0,30.15,SW,214,0.0,1.0,97,0.00,,,0.00,VWS V14.00,2013-06-24 04:54:00,
2013-06-24 00:59:00,76.9,76.0,30.15,SW,214,0.0,1.0,97,0.00,,,0.00,VWS V14.00,2013-06-24 04:59:00,
2013-06-24 01:04:00,76.8,75.9,30.15,SW,214,0.0,0.0,97,0.00,,,0.00,VWS V14.00,2013-06-24 05:04:00,
2013-06-24 01:10:00,76.8,75.9,30.15,SW,214,0.0,0.0,97,0.00,,,0.00,VWS V14.00,2013-06-24 05:10:00,
2013-06-24 01:15:00,76.8,75.9,30.14,SW,214,0.0,0.0,97,0.00,,,0.00,VWS V14.00,2013-06-24 05:15:00,
2013-06-24 01:20:00,76.7,75.8,30.14,SW,214,0.0,0.0,97,0.00,,,0.00,VWS V14.00,2013-06-24 05:20:00,
2013-06-24 01:25:00,76.7,75.8,30.14,SW,214,0.0,0.0,97,0.00,,,0.00,VWS V14.00,2013-06-24 05:25:00,
2013-06-24 01:30:00,76.7,75.8,30.14,SW,214,0.0,0.0,97,0.00,,,0.00,VWS V14.00,2013-06-24 05:30:00,
2013-06-24 01:36:00,76.7,76.1,30.14,SW,214,0.0,1.0,98,0.00,,,0.00,VWS V14.00,2013-06-24 05:36:00,
2013-06-24 01:41:00,76.7,76.1,30.14,SW,214,0.0,0.0,98,0.00,,,0.00,VWS V14.00,2013-06-24 05:41:00,
2013-06-24 01:47:00,76.7,76.1,30.14,SW,214,0.0,0.0,98,0.00,,,0.00,VWS V14.00,2013-06-24 05:47:00,
2013-06-24 01:52:00,76.7,76.1,30.14,SW,214,0.0,0.0,98,0.00,,,0.00,VWS V14.00,2013-06-24 05:52:00,
2013-06-24 01:57:00,76.7,76.1,30.14,SW,214,0.0,1.0,98,0.00,,,0.00,VWS V14.00,2013-06-24 05:57:00,
2013-06-24 02:02:00,76.7,76.1,30.14,SW,214,0.0,0.0,98,0.00,,,0.00,VWS V14.00,2013-06-24 06:02:00,
2013-06-24 02:08:00,76.7,76.1,30.14,SW,214,0.0,1.0,98,0.00,,,0.00,VWS V14.00,2013-06-24 06:08:00,
2013-06-24 02:13:00,76.7,76.1,30.14,SW,214,0.0,0.0,98,0.00,,,0.00,VWS V14.00,2013-06-24 06:13:00,
2013-06-24 02:18:00,76.8,76.2,30.14,SW,214,0.0,0.0,98,0.00,,,0.00,VWS V14.00,2013-06-24 06:18:00,
2013-06-24 02:24:00,76.8,76.2,30.14,SW,214,1.0,1.0,98,0.00,,,0.00,VWS V14.00,2013-06-24 06:24:00,
2013-06-24 02:29:00,76.8,76.2,30.14,SW,214,0.0,1.0,98,0.00,,,0.00,VWS V14.00,2013-06-24 06:29:00,
2013-06-24 02:34:00,76.8,76.2,30.14,SW,214,0.0,1.0,98,0.00,,,0.00,VWS V14.00,2013-06-24 06:34:00,
2013-06-24 02:39:00,76.8,76.2,30.14,SW,214,0.0,1.0,98,0.00,,,0.00,VWS V14.00,2013-06-24 06:39:00,
2013-06-24 02:45:00,76.8,76.2,30.14,SW,214,0.0,1.0,98,0.00,,,0.00,VWS V14.00,2013-06-24 06:45:00,
2013-06-24 02:51:00,76.8,76.2,30.14,SW,214,0.0,1.0,98,0.00,,,0.00,VWS V14.00,2013-06-24 06:51:00,
2013-06-24 02:56:00,76.8,76.2,30.15,SW,214,0.0,0.0,98,0.00,,,0.00,VWS V14.00,2013-06-24 06:56:00,
2013-06-24 03:01:00,76.8,76.2,30.15,SW,214,0.0,1.0,98,0.00,,,0.00,VWS V14.00,2013-06-24 07:01:00,
2013-06-24 03:06:00,76.8,76.2,30.15,SW,214,0.0,0.0,98,0.00,,,0.00,VWS V14.00,2013-06-24 07:06:00,
2013-06-24 03:11:00,76.8,76.2,30.15,SW,214,0.0,1.0,98,0.00,,,0.00,VWS V14.00,2013-06-24 07:11:00,
2013-06-24 03:16:00,76.7,76.1,30.15,SW,214,0.0,1.0,98,0.00,,,0.00,VWS V14.00,2013-06-24 07:16:00,
2013-06-24 03:21:00,76.8,76.2,30.15,SW,214,0.0,0.0,98,0.00,,,0.00,VWS V14.00,2013-06-24 07:21:00,
2013-06-24 03:27:00,76.8,76.2,30.15,SW,214,0.0,0.0,98,0.00,,,0.00,VWS V14.00,2013-06-24 07:27:00,
2013-06-24 03:32:00,76.8,76.2,30.15,SW,214,0.0,0.0,98,0.00,,,0.00,VWS V14.00,2013-06-24 07:32:00,
2013-06-24 03:37:00,76.8,76.2,30.15,SW,214,0.0,0.0,98,0.00,,,0.00,VWS V14.00,2013-06-24 07:37:00,
2013-06-24 03:43:00,76.8,76.2,30.15,SW,214,0.0,0.0,98,0.00,,,0.00,VWS V14.00,2013-06-24 07:43:00,
2013-06-24 03:48:00,76.8,76.2,30.15,SW,214,0.0,0.0,98,0.00,,,0.00,VWS V14.00,2013-06-24 07:48:00,
2013-06-24 03:53:00,76.7,76.1,30.15,SW,214,0.0,0.0,98,0.00,,,0.00,VWS V14.00,2013-06-24 07:53:00,
2013-06-24 03:58:00,76.6,76.0,30.15,SW,214,0.0,0.0,98,0.00,,,0.00,VWS V14.00,2013-06-24 07:58:00,
2013-06-24 04:03:00,76.5,75.9,30.15,SW,214,0.0,0.0,98,0.00,,,0.00,VWS V14.00,2013-06-24 08:03:00,
2013-06-24 04:08:00,76.5,75.9,30.16,SW,214,0.0,0.0,98,0.00,,,0.00,VWS V14.00,2013-06-24 08:08:00,
2013-06-24 04:14:00,76.4,75.8,30.16,SW,214,0.0,0.0,98,0.00,,,0.00,VWS V14.00,2013-06-24 08:14:00,
2013-06-24 04:19:00,76.2,75.6,30.16,SW,214,0.0,0.0,98,0.00,,,0.00,VWS V14.00,2013-06-24 08:19:00,
2013-06-24 04:24:00,76.1,75.5,30.16,SW,214,0.0,0.0,98,0.00,,,0.00,VWS V14.00,2013-06-24 08:24:00,
2013-06-24 04:29:00,76.2,75.6,30.16,SW,214,0.0,0.0,98,0.00,,,0.00,VWS V14.00,2013-06-24 08:29:00,
2013-06-24 04:34:00,76.3,75.7,30.16,SW,214,0.0,0.0,98,0.00,,,0.00,VWS V14.00,2013-06-24 08:34:00,
2013-06-24 04:39:00,76.3,75.7,30.16,SW,214,0.0,0.0,98,0.00,,,0.00,VWS V14.00,2013-06-24 08:39:00,
2013-06-24 04:44:00,76.3,75.7,30.16,SW,214,0.0,0.0,98,0.00,,,0.00,VWS V14.00,2013-06-24 08:44:00,
2013-06-24 04:49:00,76.1,75.5,30.16,SW,214,0.0,0.0,98,0.00,,,0.00,VWS V14.00,2013-06-24 08:49:00,
2013-06-24 04:54:00,75.9,75.3,30.16,SW,214,0.0,0.0,98,0.00,,,0.00,VWS V14.00,2013-06-24 08:54:00,
2013-06-24 05:00:00,75.5,74.9,30.16,SW,214,0.0,0.0,98,0.00,,,0.00,VWS V14.00,2013-06-24 09:00:00,
2013-06-24 05:05:00,75.3,74.7,30.16,SW,214,0.0,0.0,98,0.00,,,0.00,VWS V14.00,2013-06-24 09:05:00,
2013-06-24 05:11:00,75.1,74.5,30.16,SW,214,0.0,0.0,98,0.00,,,0.00,VWS V14.00,2013-06-24 09:11:00,
2013-06-24 05:16:00,75.0,74.4,30.16,SW,214,0.0,0.0,98,0.00,,,0.00,VWS V14.00,2013-06-24 09:16:00,
2013-06-24 05:21:00,75.0,74.4,30.16,SW,214,0.0,0.0,98,0.00,,,0.00,VWS V14.00,2013-06-24 09:21:00,
2013-06-24 05:26:00,74.9,74.3,30.15,SW,214,0.0,0.0,98,0.00,,,0.00,VWS V14.00,2013-06-24 09:26:00,
2013-06-24 05:31:00,74.9,74.3,30.15,SW,214,0.0,0.0,98,0.00,,,0.00,VWS V14.00,2013-06-24 09:31:00,
2013-06-24 05:36:00,74.8,74.2,30.16,SW,214,0.0,0.0,98,0.00,,,0.00,VWS V14.00,2013-06-24 09:36:00,
2013-06-24 05:41:00,74.8,74.2,30.16,SW,214,0.0,0.0,98,0.00,,,0.00,VWS V14.00,2013-06-24 09:41:00,
2013-06-24 05:47:00,74.7,74.1,30.16,SW,214,0.0,0.0,98,0.00,,,0.00,VWS V14.00,2013-06-24 09:47:00,
2013-06-24 05:52:00,74.7,74.4,30.16,SW,214,0.0,0.0,99,0.00,,,0.00,VWS V14.00,2013-06-24 09:52:00,
2013-06-24 05:57:00,74.7,74.4,30.17,SW,214,0.0,0.0,99,0.00,,,0.00,VWS V14.00,2013-06-24 09:57:00,
2013-06-24 06:02:00,74.7,74.4,30.17,SW,214,0.0,0.0,99,0.00,,,0.00,VWS V14.00,2013-06-24 10:02:00,
2013-06-24 06:07:00,74.7,74.4,30.17,SW,214,0.0,0.0,99,0.00,,,0.00,VWS V14.00,2013-06-24 10:07:00,
2013-06-24 06:12:00,74.8,74.5,30.16,SW,214,0.0,0.0,99,0.00,,,0.00,VWS V14.00,2013-06-24 10:12:00,
2013-06-24 06:17:00,74.9,74.6,30.17,SW,214,0.0,0.0,99,0.00,,,0.00,VWS V14.00,2013-06-24 10:17:00,
2013-06-24 06:22:00,74.8,74.5,30.17,SW,214,0.0,0.0,99,0.00,,,0.00,VWS V14.00,2013-06-24 10:22:00,
2013-06-24 06:28:00,74.8,74.5,30.17,SW,214,0.0,0.0,99,0.00,,,0.00,VWS V14.00,2013-06-24 10:28:00,
2013-06-24 06:33:00,74.8,74.5,30.17,SW,214,0.0,0.0,99,0.00,,,0.00,VWS V14.00,2013-06-24 10:33:00,
2013-06-24 06:38:00,74.8,74.5,30.17,SW,214,0.0,0.0,99,0.00,,,0.00,VWS V14.00,2013-06-24 10:38:00,
2013-06-24 06:43:00,74.9,74.6,30.17,SW,214,0.0,0.0,99,0.00,,,0.00,VWS V14.00,2013-06-24 10:43:00,
2013-06-24 06:48:00,75.4,75.1,30.17,SW,214,0.0,0.0,99,0.00,,,0.00,VWS V14.00,2013-06-24 10:48:00,
2013-06-24 06:54:00,75.7,75.4,30.17,SW,214,0.0,0.0,99,0.00,,,0.00,VWS V14.00,2013-06-24 10:54:00,
2013-06-24 06:59:00,75.9,75.6,30.17,SW,214,0.0,0.0,99,0.00,,,0.00,VWS V14.00,2013-06-24 10:59:00,
2013-06-24 07:05:00,76.2,75.9,30.17,SW,214,0.0,0.0,99,0.00,,,0.00,VWS V14.00,2013-06-24 11:05:00,
2013-06-24 07:10:00,76.8,76.5,30.17,SW,214,0.0,0.0,99,0.00,,,0.00,VWS V14.00,2013-06-24 11:10:00,
2013-06-24 07:15:00,77.2,77.2,30.17,SW,214,0.0,0.0,100,0.00,,,0.00,VWS V14.00,2013-06-24 11:15:00,
2013-06-24 07:20:00,77.5,77.2,30.17,SSW,212,0.0,0.0,99,0.00,,,0.00,VWS V14.00,2013-06-24 11:20:00,
2013-06-24 07:25:00,77.7,77.7,30.17,SSW,212,0.0,0.0,100,0.00,,,0.00,VWS V14.00,2013-06-24 11:25:00,
2013-06-24 07:30:00,78.0,78.0,30.17,West,261,0.0,2.0,100,0.00,,,0.00,VWS V14.00,2013-06-24 11:30:00,
2013-06-24 07:36:00,78.2,77.9,30.17,West,262,0.0,1.0,99,0.00,,,0.00,VWS V14.00,2013-06-24 11:36:00,
2013-06-24 07:41:00,78.5,78.2,30.17,West,269,0.0,2.0,99,0.00,,,0.00,VWS V14.00,2013-06-24 11:41:00,
2013-06-24 07:46:00,78.7,78.4,30.17,SW,225,0.0,6.0,99,0.00,,,0.00,VWS V14.00,2013-06-24 11:46:00,
2013-06-24 07:51:00,78.9,78.6,30.17,SW,220,0.0,6.0,99,0.00,,,0.00,VWS V14.00,2013-06-24 11:51:00,
2013-06-24 07:56:00,79.1,78.8,30.17,WSW,249,1.0,3.0,99,0.00,,,0.00,VWS V14.00,2013-06-24 11:56:00,
2013-06-24 08:01:00,79.3,78.7,30.17,WNW,285,0.0,3.0,98,0.00,,,0.00,VWS V14.00,2013-06-24 12:01:00,
2013-06-24 08:06:00,79.6,78.7,30.17,WNW,285,0.0,3.0,97,0.00,,,0.00,VWS V14.00,2013-06-24 12:06:00,
2013-06-24 08:11:00,80.0,78.8,30.18,WNW,302,2.0,3.0,96,0.00,,,0.00,VWS V14.00,2013-06-24 12:11:00,
2013-06-24 08:17:00,80.5,79.3,30.18,NW,321,0.0,3.0,96,0.00,,,0.00,VWS V14.00,2013-06-24 12:17:00,
2013-06-24 08:22:00,80.8,78.9,30.18,South,188,2.0,3.0,94,0.00,,,0.00,VWS V14.00,2013-06-24 12:22:00,
2013-06-24 08:27:00,81.0,78.8,30.18,WSW,257,3.0,5.0,93,0.00,,,0.00,VWS V14.00,2013-06-24 12:27:00,
2013-06-24 08:32:00,81.1,78.6,30.18,NW,314,1.0,3.0,92,0.00,,,0.00,VWS V14.00,2013-06-24 12:32:00,
2013-06-24 08:37:00,81.4,78.9,30.18,NW,318,0.0,3.0,92,0.00,,,0.00,VWS V14.00,2013-06-24 12:37:00,
2013-06-24 08:43:00,81.2,77.0,30.19,ENE,67,1.0,3.0,87,0.00,,,0.00,VWS V14.00,2013-06-24 12:43:00,
2013-06-24 08:48:00,80.5,75.6,30.18,NNE,17,0.0,3.0,85,0.00,,,0.00,VWS V14.00,2013-06-24 12:48:00,
2013-06-24 08:53:00,80.0,75.1,30.18,NW,311,1.0,1.0,85,0.00,,,0.00,VWS V14.00,2013-06-24 12:53:00,
2013-06-24 08:58:00,79.4,74.8,30.19,NNE,14,0.0,3.0,86,0.00,,,0.00,VWS V14.00,2013-06-24 12:58:00,
2013-06-24 09:03:00,78.9,74.4,30.19,NW,315,0.0,6.0,86,0.00,,,0.00,VWS V14.00,2013-06-24 13:03:00,
2013-06-24 09:08:00,78.3,74.1,30.19,NW,304,1.0,6.0,87,0.00,,,0.00,VWS V14.00,2013-06-24 13:08:00,
2013-06-24 09:14:00,77.7,73.9,30.19,SW,235,3.0,3.0,88,0.00,,,0.00,VWS V14.00,2013-06-24 13:14:00,
2013-06-24 09:19:00,77.5,74.0,30.19,SW,221,1.0,3.0,89,0.00,,,0.00,VWS V14.00,2013-06-24 13:19:00,
2013-06-24 09:25:00,77.4,74.2,30.19,WSW,258,0.0,3.0,90,0.00,,,0.00,VWS V14.00,2013-06-24 13:25:00,
2013-06-24 09:30:00,77.6,75.1,30.19,WSW,258,0.0,3.0,92,0.00,,,0.00,VWS V14.00,2013-06-24 13:30:00,
2013-06-24 09:35:00,77.5,75.0,30.19,WSW,257,0.0,0.0,92,0.00,,,0.00,VWS V14.00,2013-06-24 13:35:00,
2013-06-24 09:40:00,77.6,75.4,30.19,West,265,0.0,2.0,93,0.01,,,0.01,VWS V14.00,2013-06-24 13:40:00,
2013-06-24 09:46:00,77.6,75.7,30.19,WNW,300,3.0,5.0,94,0.09,,,0.09,VWS V14.00,2013-06-24 13:46:00,
2013-06-24 09:51:00,77.3,75.8,30.19,NNW,329,0.0,5.0,95,0.22,,,0.22,VWS V14.00,2013-06-24 13:51:00,
2013-06-24 09:56:00,77.1,75.6,30.19,NNW,329,0.0,0.0,95,0.23,,,0.23,VWS V14.00,2013-06-24 13:56:00,
2013-06-24 10:01:00,77.1,75.9,30.19,NNW,329,0.0,0.0,96,0.23,,,0.23,VWS V14.00,2013-06-24 14:01:00,
2013-06-24 10:06:00,77.2,76.0,30.19,NNW,330,0.0,2.0,96,0.23,,,0.23,VWS V14.00,2013-06-24 14:06:00,
2013-06-24 10:12:00,77.2,76.3,30.19,NW,318,1.0,3.0,97,0.23,,,0.23,VWS V14.00,2013-06-24 14:12:00,
2013-06-24 10:17:00,77.3,76.4,30.19,NW,318,0.0,3.0,97,0.24,,,0.24,VWS V14.00,2013-06-24 14:17:00,
2013-06-24 10:22:00,77.3,76.4,30.19,NW,318,0.0,0.0,97,0.25,,,0.25,VWS V14.00,2013-06-24 14:22:00,
2013-06-24 10:28:00,77.2,76.3,30.19,WNW,300,0.0,4.0,97,0.27,,,0.27,VWS V14.00,2013-06-24 14:28:00,
2013-06-24 10:33:00,77.1,76.2,30.20,SW,218,1.0,3.0,97,0.28,,,0.28,VWS V14.00,2013-06-24 14:33:00,
2013-06-24 10:39:00,76.9,76.0,30.20,NW,318,1.0,4.0,97,0.28,,,0.28,VWS V14.00,2013-06-24 14:39:00,
2013-06-24 10:44:00,77.0,76.1,30.20,NNW,329,0.0,1.0,97,0.26,,,0.28,VWS V14.00,2013-06-24 14:44:00,
2013-06-24 10:49:00,77.2,76.6,30.20,NW,317,0.0,3.0,98,0.27,,,0.29,VWS V14.00,2013-06-24 14:49:00,
2013-06-24 10:54:00,77.2,76.6,30.20,WSW,257,0.0,3.0,98,0.08,,,0.30,VWS V14.00,2013-06-24 14:54:00,
2013-06-24 11:00:00,77.2,76.3,30.20,SW,233,0.0,3.0,97,0.08,,,0.30,VWS V14.00,2013-06-24 15:00:00,
2013-06-24 11:05:00,77.1,76.2,30.20,SW,234,1.0,1.0,97,0.07,,,0.30,VWS V14.00,2013-06-24 15:05:00,
2013-06-24 11:10:00,77.1,76.2,30.19,NW,315,0.0,3.0,97,0.07,,,0.30,VWS V14.00,2013-06-24 15:10:00,
2013-06-24 11:15:00,77.0,76.1,30.19,WNW,300,0.0,3.0,97,0.07,,,0.30,VWS V14.00,2013-06-24 15:15:00,
2013-06-24 11:20:00,77.1,76.2,30.19,WNW,302,2.0,3.0,97,0.08,,,0.31,VWS V14.00,2013-06-24 15:20:00,
2013-06-24 11:25:00,77.1,76.2,30.19,West,269,0.0,2.0,97,0.06,,,0.31,VWS V14.00,2013-06-24 15:25:00,
2013-06-24 11:31:00,77.6,77.0,30.20,SW,234,1.0,2.0,98,0.06,,,0.31,VWS V14.00,2013-06-24 15:31:00,
2013-06-24 11:36:00,77.7,76.8,30.20,WSW,252,0.0,5.0,97,0.03,,,0.31,VWS V14.00,2013-06-24 15:36:00,
2013-06-24 11:41:00,77.7,77.1,30.19,WSW,244,0.0,5.0,98,0.03,,,0.31,VWS V14.00,2013-06-24 15:41:00,
2013-06-24 11:46:00,77.5,76.6,30.19,WSW,256,1.0,3.0,97,0.04,,,0.32,VWS V14.00,2013-06-24 15:46:00,
2013-06-24 11:51:00,77.3,76.4,30.19,SSE,155,1.0,2.0,97,0.03,,,0.32,VWS V14.00,2013-06-24 15:51:00,
2013-06-24 11:56:00,77.4,76.5,30.19,SSW,204,0.0,2.0,97,0.03,,,0.32,VWS V14.00,2013-06-24 15:56:00,
2013-06-24 12:02:00,77.5,76.6,30.19,SSW,204,0.0,0.0,97,0.02,,,0.32,VWS V14.00,2013-06-24 16:02:00,
2013-06-24 12:07:00,77.7,77.1,30.19,WSW,244,0.0,2.0,98,0.02,,,0.32,VWS V14.00,2013-06-24 16:07:00,
2013-06-24 12:12:00,78.0,77.4,30.20,WSW,244,0.0,0.0,98,0.02,,,0.32,VWS V14.00,2013-06-24 16:12:00,
2013-06-24 12:17:00,78.2,77.3,30.20,WNW,298,1.0,2.0,97,0.02,,,0.32,VWS V14.00,2013-06-24 16:17:00,
2013-06-24 12:22:00,78.3,77.4,30.19,NW,311,1.0,3.0,97,0.01,,,0.32,VWS V14.00,2013-06-24 16:22:00,
2013-06-24 12:27:00,79.1,78.2,30.19,NW,313,2.0,4.0,97,0.01,,,0.32,VWS V14.00,2013-06-24 16:27:00,
2013-06-24 12:33:00,79.7,78.8,30.20,NNW,327,0.0,1.0,97,0.01,,,0.32,VWS V14.00,2013-06-24 16:33:00,
2013-06-24 12:38:00,80.0,78.8,30.20,SSE,150,1.0,2.0,96,0.01,,,0.32,VWS V14.00,2013-06-24 16:38:00,
2013-06-24 12:43:00,80.4,79.2,30.19,SW,225,2.0,2.0,96,0.01,,,0.32,VWS V14.00,2013-06-24 16:43:00,
2013-06-24 12:49:00,80.8,79.6,30.19,WNW,300,0.0,2.0,96,0.01,,,0.32,VWS V14.00,2013-06-24 16:49:00,
2013-06-24 12:54:00,81.0,79.4,30.19,WNW,301,3.0,3.0,95,0.00,,,0.32,VWS V14.00,2013-06-24 16:54:00,
2013-06-24 12:59:00,81.2,79.0,30.19,NW,314,4.0,5.0,93,0.00,,,0.32,VWS V14.00,2013-06-24 16:59:00,
2013-06-24 13:04:00,81.6,79.1,30.19,WNW,296,1.0,5.0,92,0.00,,,0.32,VWS V14.00,2013-06-24 17:04:00,
2013-06-24 13:09:00,82.0,78.8,30.19,WNW,294,1.0,5.0,90,0.00,,,0.32,VWS V14.00,2013-06-24 17:09:00,
2013-06-24 13:14:00,82.7,79.5,30.18,West,279,4.0,4.0,90,0.00,,,0.32,VWS V14.00,2013-06-24 17:14:00,
2013-06-24 13:19:00,83.0,79.8,30.18,WSW,256,1.0,9.0,90,0.00,,,0.32,VWS V14.00,2013-06-24 17:19:00,
2013-06-24 13:24:00,83.3,78.7,30.18,NW,304,5.0,6.0,86,0.00,,,0.32,VWS V14.00,2013-06-24 17:24:00,
2013-06-24 13:29:00,83.9,80.0,30.18,SSW,209,0.0,7.0,88,0.00,,,0.32,VWS V14.00,2013-06-24 17:29:00,
2013-06-24 13:35:00,84.4,79.4,30.18,WNW,294,1.0,8.0,85,0.00,,,0.32,VWS V14.00,2013-06-24 17:35:00,
2013-06-24 13:40:00,84.8,79.4,30.17,SSW,192,1.0,9.0,84,0.00,,,0.32,VWS V14.00,2013-06-24 17:40:00,
2013-06-24 13:46:00,85.3,79.6,30.17,WNW,282,2.0,5.0,83,0.00,,,0.32,VWS V14.00,2013-06-24 17:46:00,
2013-06-24 13:51:00,85.6,79.8,30.17,SSW,205,1.0,6.0,83,0.00,,,0.32,VWS V14.00,2013-06-24 17:51:00,
2013-06-24 13:57:00,85.8,79.7,30.16,WNW,302,2.0,5.0,82,0.00,,,0.32,VWS V14.00,2013-06-24 17:57:00,
2013-06-24 14:02:00,85.8,79.7,30.16,WSW,237,1.0,4.0,82,0.00,,,0.32,VWS V14.00,2013-06-24 18:02:00,
2013-06-24 14:07:00,86.0,79.9,30.16,NW,304,2.0,5.0,82,0.00,,,0.32,VWS V14.00,2013-06-24 18:07:00,
2013-06-24 14:12:00,85.9,79.4,30.16,WNW,290,0.0,5.0,81,0.00,,,0.32,VWS V14.00,2013-06-24 18:12:00,
2013-06-24 14:17:00,85.8,78.9,30.16,NW,306,4.0,6.0,80,0.00,,,0.32,VWS V14.00,2013-06-24 18:17:00,
2013-06-24 14:23:00,85.6,79.1,30.16,SSW,212,0.0,6.0,81,0.00,,,0.32,VWS V14.00,2013-06-24 18:23:00,
2013-06-24 14:28:00,85.6,79.1,30.15,NW,317,1.0,6.0,81,0.00,,,0.32,VWS V14.00,2013-06-24 18:28:00,
2013-06-24 14:33:00,86.1,80.0,30.15,SW,218,0.0,3.0,82,0.00,,,0.32,VWS V14.00,2013-06-24 18:33:00,
2013-06-24 14:38:00,86.3,80.2,30.15,West,269,0.0,11.0,82,0.00,,,0.32,VWS V14.00,2013-06-24 18:38:00,
2013-06-24 14:43:00,86.4,79.9,30.14,SW,221,1.0,11.0,81,0.00,,,0.32,VWS V14.00,2013-06-24 18:43:00,
2013-06-24 15:41:00,84.7,77.8,30.15,ENE,78,0.0,11.0,80,0.00,,,0.32,VWS V14.00,2013-06-24 19:41:00,
2013-06-24 15:46:00,84.5,78.0,30.15,WNW,300,1.0,6.0,81,0.00,,,0.32,VWS V14.00,2013-06-24 19:46:00,
2013-06-24 15:53:00,83.9,77.1,30.15,NNW,343,2.0,7.0,80,0.00,,,0.32,VWS V14.00,2013-06-24 19:53:00,
2013-06-24 15:58:00,83.8,78.1,30.15,NW,307,0.0,7.0,83,0.00,,,0.32,VWS V14.00,2013-06-24 19:58:00,
2013-06-24 16:03:00,83.6,77.9,30.15,NW,308,2.0,7.0,83,0.00,,,0.32,VWS V14.00,2013-06-24 20:03:00,
2013-06-24 16:08:00,83.3,78.0,30.15,WSW,258,2.0,7.0,84,0.00,,,0.32,VWS V14.00,2013-06-24 20:08:00,
2013-06-24 16:13:00,83.3,78.3,30.15,NW,313,3.0,5.0,85,0.00,,,0.32,VWS V14.00,2013-06-24 20:13:00,
2013-06-24 16:18:00,82.9,76.5,30.16,NE,49,1.0,5.0,81,0.00,,,0.32,VWS V14.00,2013-06-24 20:18:00,
2013-06-24 16:23:00,81.6,75.2,30.15,ENE,60,1.0,3.0,81,0.00,,,0.32,VWS V14.00,2013-06-24 20:23:00,
2013-06-24 16:29:00,80.6,74.6,30.16,ENE,60,1.0,3.0,82,0.00,,,0.32,VWS V14.00,2013-06-24 20:29:00,
2013-06-24 16:34:00,79.6,74.0,30.15,ENE,57,0.0,3.0,83,0.00,,,0.32,VWS V14.00,2013-06-24 20:34:00,
2013-06-24 16:39:00,79.0,73.8,30.15,ENE,58,0.0,3.0,84,0.00,,,0.32,VWS V14.00,2013-06-24 20:39:00,
2013-06-24 16:44:00,78.7,74.2,30.14,SSE,155,0.0,2.0,86,0.00,,,0.32,VWS V14.00,2013-06-24 20:44:00,
2013-06-24 16:49:00,78.5,74.7,30.13,SSE,156,0.0,2.0,88,0.00,,,0.32,VWS V14.00,2013-06-24 20:49:00,
2013-06-24 16:54:00,78.2,74.0,30.13,SSE,155,0.0,1.0,87,0.00,,,0.32,VWS V14.00,2013-06-24 20:54:00,
2013-06-24 17:00:00,78.4,75.6,30.13,SSE,155,0.0,1.0,91,0.00,,,0.32,VWS V14.00,2013-06-24 21:00:00,
2013-06-24 17:05:00,78.4,75.9,30.12,SSE,155,1.0,2.0,92,0.00,,,0.32,VWS V14.00,2013-06-24 21:05:00,
2013-06-24 17:10:00,78.3,75.5,30.12,SSE,155,0.0,2.0,91,0.00,,,0.32,VWS V14.00,2013-06-24 21:10:00,
2013-06-24 17:15:00,78.2,75.4,30.12,SSE,155,0.0,1.0,91,0.00,,,0.32,VWS V14.00,2013-06-24 21:15:00,
2013-06-24 17:20:00,78.2,75.0,30.12,SSE,155,0.0,1.0,90,0.00,,,0.32,VWS V14.00,2013-06-24 21:20:00,
2013-06-24 17:26:00,78.4,75.2,30.12,SSE,155,0.0,1.0,90,0.00,,,0.32,VWS V14.00,2013-06-24 21:26:00,
2013-06-24 17:31:00,79.0,75.8,30.12,SSE,155,0.0,1.0,90,0.00,,,0.32,VWS V14.00,2013-06-24 21:31:00,
2013-06-24 17:36:00,79.6,76.1,30.12,West,260,0.0,2.0,89,0.00,,,0.32,VWS V14.00,2013-06-24 21:36:00,
2013-06-24 17:41:00,80.1,76.9,30.12,West,260,0.0,0.0,90,0.00,,,0.32,VWS V14.00,2013-06-24 21:41:00,
2013-06-24 17:47:00,80.4,76.9,30.11,West,260,0.0,1.0,89,0.00,,,0.32,VWS V14.00,2013-06-24 21:47:00,
2013-06-24 17:52:00,80.7,77.2,30.11,West,260,0.0,1.0,89,0.00,,,0.32,VWS V14.00,2013-06-24 21:52:00,
2013-06-24 17:57:00,80.9,77.7,30.11,West,260,0.0,2.0,90,0.00,,,0.32,VWS V14.00,2013-06-24 21:57:00,
2013-06-24 18:03:00,81.1,77.9,30.11,West,260,0.0,0.0,90,0.00,,,0.32,VWS V14.00,2013-06-24 22:03:00,
2013-06-24 18:08:00,81.5,78.6,30.11,WSW,244,1.0,2.0,91,0.00,,,0.32,VWS V14.00,2013-06-24 22:08:00,
2013-06-24 18:13:00,81.7,78.5,30.11,SSW,209,0.0,3.0,90,0.00,,,0.32,VWS V14.00,2013-06-24 22:13:00,
2013-06-24 18:18:00,81.9,78.3,30.11,SW,222,0.0,3.0,89,0.00,,,0.32,VWS V14.00,2013-06-24 22:18:00,
2013-06-24 18:24:00,81.9,78.3,30.11,SW,222,0.0,2.0,89,0.00,,,0.32,VWS V14.00,2013-06-24 22:24:00,
2013-06-24 18:29:00,81.9,78.3,30.11,SW,232,1.0,2.0,89,0.00,,,0.32,VWS V14.00,2013-06-24 22:29:00,
2013-06-24 18:34:00,81.7,78.2,30.11,WNW,290,2.0,4.0,89,0.00,,,0.32,VWS V14.00,2013-06-24 22:34:00,
2013-06-24 18:39:00,81.6,78.1,30.11,WSW,246,0.0,4.0,89,0.00,,,0.32,VWS V14.00,2013-06-24 22:39:00,
2013-06-24 18:44:00,81.6,78.1,30.12,WSW,246,0.0,1.0,89,0.00,,,0.32,VWS V14.00,2013-06-24 22:44:00,
2013-06-24 18:49:00,81.5,78.3,30.12,SW,216,0.0,3.0,90,0.00,,,0.32,VWS V14.00,2013-06-24 22:49:00,
2013-06-24 18:55:00,81.3,78.1,30.12,WSW,257,0.0,2.0,90,0.00,,,0.32,VWS V14.00,2013-06-24 22:55:00,
2013-06-24 19:00:00,81.2,78.0,30.12,WSW,257,0.0,2.0,90,0.00,,,0.32,VWS V14.00,2013-06-24 23:00:00,
2013-06-24 19:05:00,81.1,78.2,30.12,WSW,257,0.0,1.0,91,0.00,,,0.32,VWS V14.00,2013-06-24 23:05:00,
2013-06-24 19:10:00,80.9,78.0,30.12,SSW,209,0.0,4.0,91,0.00,,,0.32,VWS V14.00,2013-06-24 23:10:00,
2013-06-24 19:15:00,80.8,77.9,30.11,WNW,288,0.0,1.0,91,0.00,,,0.32,VWS V14.00,2013-06-24 23:15:00,
2013-06-24 19:20:00,80.7,77.8,30.12,WNW,285,1.0,2.0,91,0.00,,,0.32,VWS V14.00,2013-06-24 23:20:00,
2013-06-24 19:25:00,80.5,77.6,30.12,ESE,113,0.0,2.0,91,0.00,,,0.32,VWS V14.00,2013-06-24 23:25:00,
2013-06-24 19:30:00,80.4,77.9,30.12,ESE,113,0.0,2.0,92,0.00,,,0.32,VWS V14.00,2013-06-24 23:30:00,
2013-06-24 19:36:00,80.3,77.8,30.11,South,189,0.0,1.0,92,0.00,,,0.32,VWS V14.00,2013-06-24 23:36:00,
2013-06-24 19:41:00,80.1,77.6,30.11,SW,222,1.0,2.0,92,0.00,,,0.32,VWS V14.00,2013-06-24 23:41:00,
2013-06-24 19:46:00,80.0,77.5,30.11,WSW,251,1.0,4.0,92,0.00,,,0.32,VWS V14.00,2013-06-24 23:46:00,
2013-06-24 19:51:00,79.9,77.4,30.11,WSW,251,0.0,4.0,92,0.00,,,0.32,VWS V14.00,2013-06-24 23:51:00,
2013-06-24 19:56:00,79.8,77.6,30.11,WSW,251,0.0,1.0,93,0.00,,,0.32,VWS V14.00,2013-06-24 23:56:00,
2013-06-24 20:02:00,79.6,77.4,30.11,WSW,251,0.0,0.0,93,0.00,,,0.32,VWS V14.00,2013-06-25 00:02:00,
2013-06-24 20:07:00,79.5,77.3,30.12,SW,223,0.0,2.0,93,0.00,,,0.32,VWS V14.00,2013-06-25 00:07:00,
2013-06-24 20:12:00,79.5,77.3,30.12,SW,223,0.0,0.0,93,0.00,,,0.32,VWS V14.00,2013-06-25 00:12:00,
2013-06-24 20:17:00,79.3,77.1,30.12,South,174,0.0,2.0,93,0.00,,,0.32,VWS V14.00,2013-06-25 00:17:00,
2013-06-24 20:22:00,79.2,77.0,30.12,South,173,0.0,0.0,93,0.00,,,0.32,VWS V14.00,2013-06-25 00:22:00,
2013-06-24 20:27:00,79.1,77.2,30.11,WSW,257,0.0,3.0,94,0.00,,,0.32,VWS V14.00,2013-06-25 00:27:00,
2013-06-24 20:32:00,78.9,77.0,30.11,WSW,258,0.0,1.0,94,0.00,,,0.32,VWS V14.00,2013-06-25 00:32:00,
2013-06-24 20:37:00,78.8,76.9,30.11,SSW,198,1.0,2.0,94,0.00,,,0.32,VWS V14.00,2013-06-25 00:37:00,
2013-06-24 20:43:00,78.8,76.9,30.11,WSW,241,0.0,0.0,94,0.00,,,0.32,VWS V14.00,2013-06-25 00:43:00,
2013-06-24 20:48:00,78.7,76.8,30.11,WSW,255,1.0,2.0,94,0.00,,,0.32,VWS V14.00,2013-06-25 00:48:00,
2013-06-24 20:53:00,78.7,76.8,30.10,WSW,255,0.0,1.0,94,0.00,,,0.32,VWS V14.00,2013-06-25 00:53:00,
2013-06-24 20:59:00,78.6,77.1,30.10,WSW,255,0.0,1.0,95,0.00,,,0.32,VWS V14.00,2013-06-25 00:59:00,
2013-06-24 21:04:00,78.5,76.9,30.10,WSW,255,0.0,1.0,95,0.00,,,0.32,VWS V14.00,2013-06-25 01:04:00,
2013-06-24 21:09:00,78.5,76.9,30.10,SSW,204,0.0,1.0,95,0.00,,,0.32,VWS V14.00,2013-06-25 01:09:00,
2013-06-24 21:14:00,78.4,76.8,30.09,SSW,204,0.0,1.0,95,0.00,,,0.32,VWS V14.00,2013-06-25 01:14:00,
2013-06-24 21:20:00,78.4,76.8,30.10,SSW,204,0.0,1.0,95,0.00,,,0.32,VWS V14.00,2013-06-25 01:20:00,
2013-06-24 21:25:00,78.4,76.8,30.10,SSW,204,0.0,1.0,95,0.00,,,0.32,VWS V14.00,2013-06-25 01:25:00,
2013-06-24 21:30:00,78.3,76.8,30.10,SSW,203,0.0,1.0,95,0.00,,,0.32,VWS V14.00,2013-06-25 01:30:00,
2013-06-24 21:35:00,78.3,76.8,30.10,SSW,206,0.0,1.0,95,0.00,,,0.32,VWS V14.00,2013-06-25 01:35:00,
2013-06-24 21:40:00,78.2,76.7,30.10,SSW,213,0.0,1.0,95,0.00,,,0.32,VWS V14.00,2013-06-25 01:40:00,
2013-06-24 21:45:00,78.2,76.7,30.10,SSW,207,0.0,2.0,95,0.00,,,0.32,VWS V14.00,2013-06-25 01:45:00,
2013-06-24 21:50:00,78.2,76.7,30.10,SSW,207,0.0,2.0,95,0.00,,,0.32,VWS V14.00,2013-06-25 01:50:00,
2013-06-24 21:56:00,78.2,76.7,30.10,West,267,2.0,2.0,95,0.00,,,0.32,VWS V14.00,2013-06-25 01:56:00,
2013-06-24 22:02:00,78.2,76.7,30.11,West,276,0.0,0.0,95,0.00,,,0.32,VWS V14.00,2013-06-25 02:02:00,
2013-06-24 22:07:00,78.2,76.7,30.11,SSW,213,0.0,2.0,95,0.00,,,0.32,VWS V14.00,2013-06-25 02:07:00,
2013-06-24 22:12:00,78.2,76.7,30.11,SSW,213,1.0,1.0,95,0.00,,,0.32,VWS V14.00,2013-06-25 02:12:00,
2013-06-24 22:17:00,78.2,76.7,30.11,SW,214,1.0,2.0,95,0.00,,,0.32,VWS V14.00,2013-06-25 02:17:00,
2013-06-24 22:23:00,78.2,76.7,30.11,SW,215,0.0,1.0,95,0.00,,,0.32,VWS V14.00,2013-06-25 02:23:00,
2013-06-24 22:29:00,78.3,76.8,30.11,SW,220,0.0,3.0,95,0.00,,,0.32,VWS V14.00,2013-06-25 02:29:00,
2013-06-24 22:35:00,78.3,76.8,30.11,SW,225,0.0,0.0,95,0.00,,,0.32,VWS V14.00,2013-06-25 02:35:00,
2013-06-24 22:40:00,78.3,76.8,30.11,SW,225,0.0,1.0,95,0.00,,,0.32,VWS V14.00,2013-06-25 02:40:00,
2013-06-24 22:45:00,78.4,76.8,30.11,SSW,194,0.0,2.0,95,0.00,,,0.32,VWS V14.00,2013-06-25 02:45:00,
2013-06-24 22:50:00,78.4,76.8,30.11,SSW,194,0.0,2.0,95,0.00,,,0.32,VWS V14.00,2013-06-25 02:50:00,
2013-06-24 22:55:00,78.4,76.8,30.11,SE,139,0.0,2.0,95,0.00,,,0.32,VWS V14.00,2013-06-25 02:55:00,
2013-06-24 23:01:00,78.4,76.8,30.12,WSW,258,0.0,3.0,95,0.00,,,0.32,VWS V14.00,2013-06-25 03:01:00,
2013-06-24 23:06:00,78.5,76.9,30.12,WSW,258,0.0,1.0,95,0.00,,,0.32,VWS V14.00,2013-06-25 03:06:00,
2013-06-24 23:11:00,78.5,76.9,30.12,WSW,256,1.0,1.0,95,0.00,,,0.32,VWS V14.00,2013-06-25 03:11:00,
2013-06-24 23:17:00,78.5,76.9,30.12,WSW,254,1.0,3.0,95,0.00,,,0.32,VWS V14.00,2013-06-25 03:17:00,
2013-06-24 23:22:00,78.4,76.8,30.12,WSW,255,0.0,0.0,95,0.00,,,0.32,VWS V14.00,2013-06-25 03:22:00,
2013-06-24 23:27:00,78.4,76.8,30.12,WSW,255,0.0,0.0,95,0.00,,,0.32,VWS V14.00,2013-06-25 03:27:00,
2013-06-24 23:33:00,78.4,76.8,30.12,SW,215,0.0,3.0,95,0.00,,,0.32,VWS V14.00,2013-06-25 03:33:00,
2013-06-24 23:39:00,78.4,76.8,30.12,SW,215,0.0,3.0,95,0.00,,,0.32,VWS V14.00,2013-06-25 03:39:00,
2013-06-24 23:44:00,78.4,77.2,30.12,WSW,257,0.0,2.0,96,0.00,,,0.32,VWS V14.00,2013-06-25 03:44:00,
2013-06-24 23:49:00,78.4,77.2,30.12,NW,309,0.0,2.0,96,0.00,,,0.32,VWS V14.00,2013-06-25 03:49:00,
2013-06-24 23:55:00,78.4,77.2,30.12,NW,309,0.0,0.0,96,0.00,,,0.32,VWS V14.00,2013-06-25 03:55:00,